createdAt,value
2023-11-30T00:01:02.800Z,3.67
2023-11-30T00:04:13.238Z,2.05
2023-11-30T00:07:23.351Z,5.85
2023-11-30T00:10:35.565Z,2.72
2023-11-30T00:13:46.210Z,4.15
2023-11-30T00:16:59.297Z,3.55
2023-11-30T00:20:09.389Z,2.00
2023-11-30T00:23:20.392Z,2.47
2023-11-30T00:33:00.478Z,3.97
2023-11-30T00:40:18.503Z,4.85
2023-11-30T00:47:08.859Z,3.97
2023-11-30T00:57:21.038Z,4.50
2023-11-30T01:00:36.399Z,4.47
2023-11-30T01:03:50.500Z,9.95
2023-11-30T01:07:23.330Z,5.57
2023-11-30T01:10:57.854Z,10.93
2023-11-30T01:14:19.080Z,7.75
2023-11-30T01:17:36.114Z,3.22
2023-11-30T01:20:54.063Z,5.00
2023-11-30T01:24:04.856Z,1.52
2023-11-30T01:27:20.050Z,3.65
2023-11-30T01:30:35.487Z,7.53
2023-11-30T01:33:45.049Z,3.35
2023-11-30T01:40:21.620Z,2.08
2023-11-30T01:43:32.602Z,4.35
2023-11-30T01:46:43.649Z,3.97
2023-11-30T01:49:58.660Z,4.90
2023-11-30T01:53:16.509Z,3.10
2023-11-30T01:56:44.864Z,7.45
2023-11-30T01:59:53.921Z,5.78
2023-11-30T02:03:03.664Z,7.03
2023-11-30T02:10:00.806Z,5.38
2023-11-30T02:24:38.489Z,3.55
2023-11-30T02:27:46.014Z,1.10
2023-11-30T02:38:30.492Z,1.08
2023-11-30T02:47:03.182Z,2.33
2023-11-30T02:50:28.251Z,2.17
2023-11-30T02:53:41.453Z,2.60
2023-11-30T02:56:55.240Z,5.50
2023-11-30T03:00:11.557Z,4.30
2023-11-30T03:03:17.599Z,3.83
2023-11-30T03:06:32.694Z,2.40
2023-11-30T03:09:41.656Z,3.95
2023-11-30T03:13:01.769Z,2.00
2023-11-30T03:16:13.396Z,3.08
2023-11-30T03:20:13.800Z,2.67
2023-11-30T03:23:28.246Z,1.15
2023-11-30T03:27:05.495Z,3.45
2023-11-30T03:30:18.431Z,2.63
2023-11-30T03:33:25.585Z,1.10
2023-11-30T03:36:43.165Z,3.95
2023-11-30T04:02:42.191Z,1.83
2023-11-30T04:05:54.226Z,2.65
2023-11-30T04:09:03.460Z,1.48
2023-11-30T04:19:08.362Z,4.57
2023-11-30T04:22:18.328Z,5.30
2023-11-30T04:25:25.836Z,6.03
2023-11-30T04:28:51.560Z,2.33
2023-11-30T04:48:45.658Z,4.13
2023-11-30T04:51:53.861Z,3.85
2023-11-30T04:58:19.476Z,5.20
2023-11-30T05:01:40.103Z,2.85
2023-11-30T05:04:51.699Z,6.28
2023-11-30T05:07:56.904Z,7.85
2023-11-30T05:31:32.390Z,4.82
2023-11-30T05:34:45.051Z,5.65
2023-11-30T05:38:04.818Z,3.72
2023-11-30T05:41:15.381Z,5.00
2023-11-30T05:44:28.046Z,4.78
2023-11-30T05:51:00.369Z,7.72
2023-11-30T05:54:04.724Z,6.13
2023-11-30T05:57:08.378Z,3.75
2023-11-30T06:00:21.806Z,5.10
2023-11-30T06:03:26.980Z,3.92
2023-11-30T06:06:30.925Z,6.28
2023-11-30T06:09:35.001Z,4.07
2023-11-30T06:16:25.321Z,5.85
2023-11-30T06:19:42.282Z,4.35
2023-11-30T06:22:48.371Z,3.13
2023-11-30T06:33:23.887Z,4.05
2023-11-30T06:43:55.800Z,4.78
2023-11-30T06:50:29.157Z,1.65
2023-11-30T06:53:36.092Z,5.20
2023-11-30T06:56:40.375Z,2.53
2023-11-30T06:59:49.410Z,3.35
2023-11-30T07:06:23.528Z,3.97
2023-11-30T07:09:30.449Z,5.68
2023-11-30T07:12:37.520Z,3.40
2023-11-30T07:15:45.944Z,3.55
2023-11-30T07:19:00.108Z,8.70
2023-11-30T07:22:07.471Z,5.60
2023-11-30T07:25:13.324Z,6.63
2023-11-30T07:28:18.978Z,6.45
2023-11-30T07:31:25.289Z,4.50
2023-11-30T08:06:08.708Z,3.95
2023-11-30T08:29:27.205Z,5.15
2023-11-30T08:36:36.738Z,2.83
2023-11-30T08:48:17.528Z,3.78
2023-11-30T08:51:27.508Z,3.47
2023-11-30T09:12:02.791Z,10.88
2023-11-30T09:19:12.067Z,7.07
2023-11-30T09:22:20.362Z,7.85
2023-11-30T09:25:27.233Z,2.70
2023-11-30T09:28:34.882Z,5.93
2023-11-30T09:32:00.936Z,7.72
2023-11-30T09:35:09.032Z,4.00
2023-11-30T09:45:29.304Z,12.85
2023-11-30T09:52:28.535Z,8.30
2023-11-30T10:03:14.483Z,7.15
2023-11-30T10:06:20.952Z,12.10
2023-11-30T10:09:25.775Z,9.02
2023-11-30T10:12:29.094Z,9.75
2023-11-30T10:18:50.302Z,12.55
2023-11-30T10:22:01.499Z,10.60
2023-11-30T10:25:11.751Z,16.20
2023-11-30T10:28:22.948Z,15.25
2023-11-30T10:31:34.013Z,16.88
2023-11-30T10:34:52.752Z,16.17
2023-11-30T10:38:12.289Z,16.98
2023-11-30T10:41:31.554Z,14.68
2023-11-30T10:44:42.729Z,16.48
2023-11-30T10:47:52.654Z,14.20
2023-11-30T10:51:02.438Z,11.30
2023-11-30T10:54:29.250Z,4.45
2023-11-30T10:57:35.610Z,7.35
2023-11-30T11:16:10.733Z,16.25
2023-11-30T11:19:16.911Z,13.30
2023-11-30T11:22:28.980Z,10.05
2023-11-30T11:26:20.223Z,8.27
2023-11-30T11:29:30.976Z,11.38
2023-11-30T11:32:46.568Z,9.82
2023-11-30T11:35:56.583Z,14.38
2023-11-30T11:39:06.871Z,16.33
2023-11-30T11:42:11.278Z,14.18
2023-11-30T11:45:16.837Z,14.20
2023-11-30T11:48:24.475Z,11.90
2023-11-30T11:51:29.458Z,14.43
2023-11-30T11:54:34.510Z,4.43
2023-11-30T11:58:00.527Z,16.30
2023-11-30T12:01:07.078Z,14.77
2023-11-30T12:23:17.618Z,9.25
2023-11-30T12:38:56.251Z,7.80
2023-11-30T12:42:01.906Z,9.32
2023-11-30T12:45:10.221Z,5.80
2023-11-30T13:08:44.338Z,9.15
2023-11-30T13:12:04.711Z,9.15
2023-11-30T13:18:46.390Z,9.00
2023-11-30T13:22:16.595Z,6.95
2023-11-30T13:25:24.362Z,9.23
2023-11-30T13:28:52.644Z,10.00
2023-11-30T13:40:07.187Z,11.57
2023-11-30T13:43:34.332Z,8.15
2023-11-30T13:51:25.961Z,12.40
2023-11-30T14:06:42.048Z,10.00
2023-11-30T14:38:51.028Z,7.88
2023-11-30T14:42:20.163Z,6.13
2023-11-30T14:45:29.323Z,6.57
2023-11-30T14:48:45.749Z,13.50
2023-11-30T14:55:26.442Z,10.88
2023-11-30T14:58:39.986Z,10.27
2023-11-30T15:05:31.627Z,7.03
2023-11-30T15:09:02.126Z,10.70
2023-11-30T15:15:26.102Z,26.85
2023-11-30T15:18:30.542Z,38.28
2023-11-30T15:21:36.712Z,62.53
2023-11-30T15:24:50.709Z,80.70
2023-11-30T15:28:03.104Z,112.97
2023-11-30T15:31:14.214Z,123.15
2023-11-30T15:34:24.264Z,151.32
2023-11-30T15:37:35.624Z,153.40
2023-11-30T15:40:47.217Z,136.20
2023-11-30T15:43:57.372Z,43.58
2023-11-30T15:47:08.288Z,102.85
2023-11-30T15:50:20.147Z,69.85
2023-11-30T15:53:30.815Z,57.42
2023-11-30T15:56:41.080Z,75.47
2023-11-30T15:59:51.234Z,52.95
2023-11-30T16:03:01.103Z,68.95
2023-11-30T16:06:17.288Z,48.92
2023-11-30T16:09:28.513Z,72.45
2023-11-30T16:12:39.438Z,138.65
2023-11-30T16:15:49.845Z,130.93
2023-11-30T16:18:59.904Z,114.75
2023-11-30T16:22:10.536Z,119.80
2023-11-30T16:25:20.872Z,121.97
2023-11-30T16:28:31.473Z,137.70
2023-11-30T16:31:44.000Z,171.15
2023-11-30T16:34:54.354Z,167.52
2023-11-30T16:38:04.102Z,146.23
2023-11-30T16:44:25.863Z,192.27
2023-11-30T16:47:36.854Z,160.13
2023-11-30T16:50:46.800Z,194.10
2023-11-30T16:53:57.494Z,199.95
2023-11-30T16:57:06.983Z,207.88
2023-11-30T17:00:17.587Z,197.20
2023-11-30T17:03:30.272Z,223.18
2023-11-30T17:06:40.557Z,243.13
2023-11-30T17:09:52.277Z,241.20
2023-11-30T17:13:02.421Z,256.65
2023-11-30T17:16:13.643Z,236.25
2023-11-30T17:19:23.840Z,230.15
2023-11-30T17:22:34.708Z,108.88
2023-11-30T17:25:45.166Z,116.35
2023-11-30T17:28:56.252Z,260.42
2023-11-30T17:32:06.620Z,234.90
2023-11-30T17:35:16.689Z,270.05
2023-11-30T17:38:27.541Z,261.65
2023-11-30T17:41:38.007Z,298.27
2023-11-30T17:44:48.205Z,321.23
2023-11-30T17:47:59.272Z,353.52
2023-11-30T17:51:12.630Z,343.45
2023-11-30T17:54:23.214Z,337.20
2023-11-30T18:00:43.682Z,284.88
2023-11-30T18:03:56.491Z,266.92
2023-11-30T18:07:08.487Z,299.77
2023-11-30T18:10:19.584Z,280.23
2023-11-30T18:13:29.011Z,300.35
2023-11-30T18:16:40.658Z,280.95
2023-11-30T18:19:51.095Z,236.40
2023-11-30T18:23:02.454Z,212.23
2023-11-30T18:26:13.023Z,208.02
2023-11-30T18:29:23.695Z,213.63
2023-11-30T18:32:34.511Z,235.18
2023-11-30T18:35:45.244Z,199.75
2023-11-30T18:38:54.785Z,189.80
2023-11-30T18:42:04.648Z,165.48
2023-11-30T18:45:14.803Z,166.25
2023-11-30T18:48:25.899Z,164.52
2023-11-30T18:51:35.835Z,144.02
2023-11-30T18:54:46.913Z,146.18
2023-11-30T18:57:56.485Z,141.98
2023-11-30T19:01:07.089Z,146.60
2023-11-30T19:04:17.620Z,151.80
2023-11-30T19:07:30.553Z,162.48
2023-11-30T19:10:42.409Z,135.77
2023-11-30T19:13:52.871Z,135.32
2023-11-30T19:17:02.726Z,142.70
2023-11-30T19:20:14.324Z,137.30
2023-11-30T19:23:27.245Z,131.05
2023-11-30T19:26:38.420Z,140.02
2023-11-30T19:29:49.103Z,123.45
2023-11-30T19:33:00.231Z,137.15
2023-11-30T19:36:13.382Z,140.50
2023-11-30T19:39:25.628Z,134.15
2023-11-30T19:42:35.431Z,122.32
2023-11-30T19:45:45.828Z,146.98
2023-11-30T19:48:56.737Z,128.77
2023-11-30T19:52:07.471Z,142.07
2023-11-30T19:55:18.151Z,136.38
2023-11-30T19:58:28.088Z,119.38
2023-11-30T20:01:39.704Z,122.90
2023-11-30T20:04:50.250Z,101.28
2023-11-30T20:08:00.829Z,79.15
2023-11-30T20:11:13.441Z,91.97
2023-11-30T20:14:24.223Z,91.80
2023-11-30T20:17:34.782Z,100.68
2023-11-30T20:20:44.932Z,81.78
2023-11-30T20:27:03.629Z,82.00
2023-11-30T20:30:14.605Z,75.70
2023-11-30T20:33:25.385Z,86.93
2023-11-30T20:36:36.825Z,90.78
2023-11-30T20:39:47.254Z,86.82
2023-11-30T20:42:58.422Z,95.70
2023-11-30T20:46:09.255Z,87.20
2023-11-30T20:49:19.633Z,82.35
2023-11-30T20:52:29.688Z,84.47
2023-11-30T20:55:39.335Z,76.38
2023-11-30T21:01:59.690Z,66.97
2023-11-30T21:05:09.933Z,77.57
2023-11-30T21:08:20.583Z,70.85
2023-11-30T21:11:30.946Z,78.22
2023-11-30T21:14:41.305Z,68.30
2023-11-30T21:17:51.136Z,72.28
2023-11-30T21:21:00.906Z,66.82
2023-11-30T21:24:10.454Z,57.70
2023-11-30T21:27:20.815Z,59.90
2023-11-30T21:30:30.694Z,56.13
2023-11-30T21:33:41.151Z,57.83
2023-11-30T21:36:51.621Z,65.25
2023-11-30T21:40:03.965Z,68.35
2023-11-30T21:43:14.378Z,73.95
2023-11-30T21:46:25.144Z,80.18
2023-11-30T21:49:35.236Z,89.68
2023-11-30T21:52:45.311Z,82.20
2023-11-30T21:55:55.210Z,94.35
2023-11-30T21:59:05.366Z,88.57
2023-11-30T22:02:18.869Z,99.80
2023-11-30T22:05:35.931Z,110.18
2023-11-30T22:08:46.182Z,105.68
2023-11-30T22:11:57.877Z,93.50
2023-11-30T22:15:07.628Z,101.85
2023-11-30T22:18:17.807Z,99.88
2023-11-30T22:21:29.335Z,98.75
2023-11-30T22:24:40.683Z,105.90
2023-11-30T22:27:50.849Z,110.68
2023-11-30T22:31:04.165Z,111.00
2023-11-30T22:34:15.990Z,103.80
2023-11-30T22:37:28.969Z,99.80
2023-11-30T22:40:35.102Z,119.45
2023-11-30T22:43:41.724Z,100.05
2023-11-30T22:46:46.395Z,109.07
2023-11-30T22:53:00.023Z,88.57
2023-11-30T22:56:40.731Z,110.40
2023-11-30T22:59:44.452Z,87.75
2023-11-30T23:02:52.477Z,115.18
2023-11-30T23:05:56.458Z,117.28
2023-11-30T23:09:00.095Z,131.07
2023-11-30T23:12:03.801Z,108.97
2023-11-30T23:15:13.116Z,117.70
2023-11-30T23:18:23.319Z,101.78
2023-11-30T23:21:34.486Z,83.88
2023-11-30T23:24:46.965Z,85.10
2023-11-30T23:27:58.012Z,88.53
2023-11-30T23:31:08.335Z,94.03
2023-11-30T23:34:18.409Z,85.43
2023-11-30T23:37:36.862Z,40.45
2023-11-30T23:40:47.120Z,78.07
2023-11-30T23:43:56.767Z,83.60
2023-11-30T23:47:07.138Z,70.97
2023-11-30T23:50:17.391Z,83.15
2023-11-30T23:53:28.212Z,87.60
2023-11-30T23:56:38.913Z,92.00
2023-11-30T23:59:56.303Z,95.18
